createdAt,value
2022-10-05T00:00:16.719Z,16.70
2022-10-05T00:02:44.690Z,16.70
2022-10-05T00:05:25.763Z,16.70
2022-10-05T00:07:56.501Z,16.70
2022-10-05T00:10:24.570Z,16.80
2022-10-05T00:12:51.799Z,16.70
2022-10-05T00:15:20.627Z,16.80
2022-10-05T00:17:48.505Z,16.80
2022-10-05T00:20:21.049Z,16.80
2022-10-05T00:22:49.470Z,16.80
2022-10-05T00:25:20.411Z,16.80
2022-10-05T00:27:58.600Z,16.80
2022-10-05T00:30:32.251Z,16.80
2022-10-05T00:33:00.101Z,16.80
2022-10-05T00:35:29.487Z,16.80
2022-10-05T00:37:57.126Z,16.80
2022-10-05T00:40:53.507Z,16.90
2022-10-05T00:43:42.556Z,16.80
2022-10-05T00:46:26.218Z,16.80
2022-10-05T00:49:05.778Z,16.90
2022-10-05T00:51:37.919Z,16.80
2022-10-05T00:54:17.343Z,16.80
2022-10-05T00:57:04.159Z,16.90
2022-10-05T00:59:57.410Z,16.80
2022-10-05T01:02:44.458Z,16.90
2022-10-05T01:05:41.552Z,16.90
2022-10-05T01:08:27.661Z,16.90
2022-10-05T01:11:28.986Z,16.80
2022-10-05T01:13:56.206Z,16.90
2022-10-05T01:16:29.414Z,16.90
2022-10-05T01:19:18.514Z,16.90
2022-10-05T01:21:56.030Z,17.20
2022-10-05T01:24:37.109Z,17.50
2022-10-05T01:27:21.431Z,17.20
2022-10-05T01:30:10.714Z,17.00
2022-10-05T01:33:07.211Z,16.90
2022-10-05T01:35:44.553Z,16.90
2022-10-05T01:38:17.615Z,16.40
2022-10-05T01:41:09.622Z,16.90
2022-10-05T01:43:48.018Z,16.90
2022-10-05T01:46:21.414Z,17.10
2022-10-05T01:49:01.012Z,16.90
2022-10-05T01:51:44.025Z,16.90
2022-10-05T01:54:33.142Z,16.90
2022-10-05T01:57:25.309Z,16.90
2022-10-05T02:00:09.329Z,17.10
2022-10-05T02:02:48.002Z,16.90
2022-10-05T02:05:21.562Z,17.10
2022-10-05T02:08:03.678Z,17.00
2022-10-05T02:11:11.023Z,17.00
2022-10-05T02:13:47.330Z,16.90
2022-10-05T02:16:24.595Z,16.90
2022-10-05T02:18:59.670Z,16.90
2022-10-05T02:21:30.559Z,17.00
2022-10-05T02:24:02.280Z,17.10
2022-10-05T02:26:32.171Z,16.90
2022-10-05T02:29:04.801Z,17.10
2022-10-05T02:31:43.144Z,17.00
2022-10-05T02:34:25.458Z,16.90
2022-10-05T02:37:23.572Z,16.90
2022-10-05T02:40:09.862Z,17.00
2022-10-05T02:43:01.049Z,16.90
2022-10-05T02:45:36.427Z,17.00
2022-10-05T02:48:04.790Z,17.00
2022-10-05T02:50:41.228Z,17.10
2022-10-05T02:53:23.776Z,17.00
2022-10-05T02:55:57.077Z,16.90
2022-10-05T02:58:29.051Z,17.00
2022-10-05T03:01:08.206Z,17.00
2022-10-05T03:03:50.866Z,16.90
2022-10-05T03:06:25.590Z,16.90
2022-10-05T03:09:04.969Z,16.90
2022-10-05T03:12:15.198Z,17.20
2022-10-05T03:15:06.187Z,16.90
2022-10-05T03:18:07.337Z,16.90
2022-10-05T03:20:46.141Z,16.90
2022-10-05T03:23:35.127Z,16.90
2022-10-05T03:26:11.928Z,16.90
2022-10-05T03:29:05.762Z,17.00
2022-10-05T03:31:48.752Z,16.90
2022-10-05T03:34:20.290Z,16.90
2022-10-05T03:37:21.596Z,16.90
2022-10-05T03:39:55.607Z,16.80
2022-10-05T03:42:46.787Z,17.00
2022-10-05T03:45:26.285Z,16.90
2022-10-05T03:48:15.430Z,16.90
2022-10-05T03:51:01.361Z,16.90
2022-10-05T03:53:37.643Z,16.90
2022-10-05T03:56:10.665Z,16.90
2022-10-05T03:58:50.958Z,16.80
2022-10-05T04:01:23.596Z,16.80
2022-10-05T04:03:57.013Z,16.80
2022-10-05T04:06:40.757Z,16.80
2022-10-05T04:09:32.485Z,16.80
2022-10-05T04:12:08.658Z,16.80
2022-10-05T04:14:44.934Z,16.80
2022-10-05T04:17:33.242Z,16.80
2022-10-05T04:20:03.666Z,16.80
2022-10-05T04:22:39.024Z,16.80
2022-10-05T04:25:28.997Z,16.80
2022-10-05T04:28:05.281Z,16.80
2022-10-05T04:30:38.165Z,16.80
2022-10-05T04:33:10.233Z,16.80
2022-10-05T04:35:48.889Z,16.80
2022-10-05T04:38:44.710Z,16.80
2022-10-05T04:41:30.664Z,16.80
2022-10-05T04:44:02.379Z,16.80
2022-10-05T04:47:14.971Z,16.80
2022-10-05T04:50:17.950Z,16.80
2022-10-05T04:53:28.218Z,16.80
2022-10-05T04:56:17.899Z,16.80
2022-10-05T04:59:05.880Z,16.90
2022-10-05T05:01:58.561Z,16.90
2022-10-05T05:04:36.681Z,16.90
2022-10-05T05:07:18.590Z,16.90
2022-10-05T05:09:54.190Z,16.90
2022-10-05T05:12:36.497Z,16.90
2022-10-05T05:15:16.075Z,16.90
2022-10-05T05:17:59.606Z,16.90
2022-10-05T05:20:42.239Z,17.40
2022-10-05T05:23:21.369Z,16.90
2022-10-05T05:26:07.698Z,16.90
2022-10-05T05:28:38.115Z,16.90
2022-10-05T05:31:25.814Z,16.90
2022-10-05T05:34:27.411Z,16.90
2022-10-05T05:36:57.925Z,16.90
2022-10-05T05:39:31.491Z,16.90
2022-10-05T05:42:10.952Z,16.90
2022-10-05T05:44:57.404Z,16.90
2022-10-05T05:47:38.204Z,16.90
2022-10-05T05:50:25.742Z,16.90
2022-10-05T05:53:05.698Z,16.90
2022-10-05T05:55:39.962Z,16.90
2022-10-05T05:58:17.390Z,16.90
2022-10-05T06:00:56.671Z,16.90
2022-10-05T06:03:38.406Z,16.90
2022-10-05T06:06:11.346Z,16.90
2022-10-05T06:08:53.144Z,16.90
2022-10-05T06:11:51.105Z,17.40
2022-10-05T06:14:23.139Z,16.90
2022-10-05T06:17:00.564Z,16.90
2022-10-05T06:19:29.338Z,16.90
2022-10-05T06:22:12.437Z,16.90
2022-10-05T06:25:03.166Z,16.90
2022-10-05T06:27:40.882Z,16.90
2022-10-05T06:30:13.424Z,16.90
2022-10-05T06:32:50.399Z,17.00
2022-10-05T06:35:56.775Z,17.00
2022-10-05T06:38:54.330Z,17.00
2022-10-05T06:41:48.548Z,17.00
2022-10-05T06:44:30.432Z,17.00
2022-10-05T06:47:23.261Z,17.00
2022-10-05T06:50:29.225Z,17.00
2022-10-05T06:53:36.918Z,17.00
2022-10-05T06:56:25.543Z,17.10
2022-10-05T06:59:10.035Z,16.90
2022-10-05T07:01:37.713Z,17.10
2022-10-05T07:04:28.362Z,17.10
2022-10-05T07:07:22.227Z,17.10
2022-10-05T07:10:20.637Z,17.10
2022-10-05T07:12:59.500Z,17.10
2022-10-05T07:15:47.590Z,17.10
2022-10-05T07:18:15.240Z,17.40
2022-10-05T07:20:59.354Z,17.20
2022-10-05T07:23:54.754Z,17.20
2022-10-05T07:26:22.070Z,17.30
2022-10-05T07:29:08.015Z,17.30
2022-10-05T07:31:57.756Z,17.30
2022-10-05T07:34:29.942Z,17.40
2022-10-05T07:37:20.362Z,17.30
2022-10-05T07:40:11.756Z,17.40
2022-10-05T07:42:56.472Z,17.40
2022-10-05T07:45:31.969Z,17.50
2022-10-05T07:48:15.010Z,17.50
2022-10-05T07:50:48.971Z,17.50
2022-10-05T07:53:28.665Z,17.50
2022-10-05T07:56:24.973Z,17.60
2022-10-05T07:58:59.084Z,17.60
2022-10-05T08:01:34.723Z,17.70
2022-10-05T08:04:21.343Z,17.70
2022-10-05T08:06:58.190Z,17.80
2022-10-05T08:09:25.671Z,17.80
2022-10-05T08:12:28.842Z,17.80
2022-10-05T08:15:01.190Z,17.80
2022-10-05T08:17:49.694Z,17.70
2022-10-05T08:20:19.821Z,17.70
2022-10-05T08:23:23.761Z,17.80
2022-10-05T08:25:57.525Z,18.00
2022-10-05T08:28:47.045Z,18.00
2022-10-05T08:31:21.530Z,18.00
2022-10-05T08:33:54.937Z,18.00
2022-10-05T08:36:44.908Z,18.00
2022-10-05T08:39:18.787Z,18.00
2022-10-05T08:42:15.779Z,17.90
2022-10-05T08:45:14.812Z,18.00
2022-10-05T08:48:14.330Z,18.00
2022-10-05T08:51:01.419Z,18.10
2022-10-05T08:53:52.910Z,18.10
2022-10-05T08:56:32.649Z,18.30
2022-10-05T08:59:34.125Z,18.10
2022-10-05T09:02:01.390Z,18.30
2022-10-05T09:05:19.227Z,18.40
2022-10-05T09:07:57.176Z,18.50
2022-10-05T09:10:46.149Z,18.50
2022-10-05T09:13:46.732Z,18.40
2022-10-05T09:16:31.498Z,18.50
2022-10-05T09:19:36.966Z,18.50
2022-10-05T09:22:46.562Z,18.50
2022-10-05T09:26:18.024Z,18.50
2022-10-05T09:29:03.871Z,18.70
2022-10-05T09:32:12.928Z,18.70
2022-10-05T09:35:16.574Z,19.00
2022-10-05T09:38:22.002Z,18.70
2022-10-05T09:40:58.078Z,18.70
2022-10-05T09:43:46.559Z,18.80
2022-10-05T09:46:36.861Z,18.80
2022-10-05T09:49:49.046Z,18.80
2022-10-05T09:52:29.653Z,18.90
2022-10-05T09:55:01.677Z,18.90
2022-10-05T09:57:55.823Z,18.80
2022-10-05T10:00:35.075Z,18.80
2022-10-05T10:03:47.183Z,18.80
2022-10-05T10:06:30.418Z,18.90
2022-10-05T10:09:21.553Z,19.00
2022-10-05T10:12:20.942Z,19.10
2022-10-05T10:15:34.823Z,19.10
2022-10-05T10:18:08.270Z,19.20
2022-10-05T10:20:58.858Z,19.20
2022-10-05T10:23:59.038Z,19.30
2022-10-05T10:26:44.854Z,19.30
2022-10-05T10:29:36.156Z,19.20
2022-10-05T10:32:03.361Z,19.20
2022-10-05T10:34:51.958Z,19.20
2022-10-05T10:37:39.429Z,19.10
2022-10-05T10:40:34.860Z,19.00
2022-10-05T10:43:25.198Z,19.00
2022-10-05T10:46:22.255Z,18.90
2022-10-05T10:48:57.462Z,19.00
2022-10-05T10:51:45.956Z,18.90
2022-10-05T10:54:22.985Z,19.00
2022-10-05T10:57:08.762Z,19.10
2022-10-05T10:59:45.072Z,19.20
2022-10-05T11:02:31.596Z,19.30
2022-10-05T11:05:26.735Z,19.30
2022-10-05T11:08:12.579Z,19.30
2022-10-05T11:11:17.805Z,19.30
2022-10-05T11:14:02.784Z,19.30
2022-10-05T11:16:54.841Z,19.20
2022-10-05T11:20:02.442Z,19.20
2022-10-05T11:22:37.027Z,19.10
2022-10-05T11:25:20.561Z,19.20
2022-10-05T11:28:19.093Z,19.00
2022-10-05T11:31:40.704Z,19.00
2022-10-05T11:34:30.023Z,18.90
2022-10-05T11:37:24.678Z,18.80
2022-10-05T11:40:10.390Z,18.70
2022-10-05T11:42:49.726Z,18.70
2022-10-05T11:46:01.650Z,18.60
2022-10-05T11:48:40.451Z,18.60
2022-10-05T11:51:40.641Z,18.60
2022-10-05T11:54:25.934Z,18.50
2022-10-05T11:57:16.822Z,18.50
2022-10-05T11:59:49.181Z,18.50
2022-10-05T12:02:40.046Z,18.40
2022-10-05T12:05:22.871Z,18.40
2022-10-05T12:07:50.194Z,18.40
2022-10-05T12:11:02.771Z,18.40
2022-10-05T12:13:29.998Z,18.40
2022-10-05T12:15:57.323Z,18.50
2022-10-05T12:18:31.056Z,18.50
2022-10-05T12:21:07.435Z,18.50
2022-10-05T12:23:37.486Z,18.60
2022-10-05T12:26:23.245Z,18.70
2022-10-05T12:28:55.821Z,18.70
2022-10-05T12:31:39.260Z,18.60
2022-10-05T12:34:40.451Z,18.50
2022-10-05T12:37:36.530Z,18.40
2022-10-05T12:40:17.660Z,18.10
2022-10-05T12:43:09.452Z,18.00
2022-10-05T12:45:54.755Z,17.80
2022-10-05T12:48:31.136Z,17.70
2022-10-05T12:51:13.836Z,17.60
2022-10-05T12:53:55.986Z,17.50
2022-10-05T12:56:35.448Z,17.40
2022-10-05T12:59:47.644Z,17.20
2022-10-05T13:02:19.096Z,17.10
2022-10-05T13:04:53.296Z,17.00
2022-10-05T13:07:39.880Z,17.00
2022-10-05T13:10:19.497Z,17.00
2022-10-05T13:13:08.545Z,17.10
2022-10-05T13:16:10.060Z,17.20
2022-10-05T13:19:01.456Z,17.30
2022-10-05T13:21:47.285Z,17.40
2022-10-05T13:24:24.765Z,17.50
2022-10-05T13:27:08.522Z,17.60
2022-10-05T13:29:40.534Z,17.70
2022-10-05T13:32:15.195Z,17.80
2022-10-05T13:35:06.704Z,17.90
2022-10-05T13:38:06.582Z,17.90
2022-10-05T13:40:43.930Z,17.90
2022-10-05T13:43:23.636Z,17.90
2022-10-05T13:46:21.836Z,17.90
2022-10-05T13:49:14.670Z,18.00
2022-10-05T13:51:52.451Z,18.00
2022-10-05T13:54:46.845Z,18.10
2022-10-05T13:57:32.253Z,17.90
2022-10-05T14:00:13.055Z,17.50
2022-10-05T14:02:43.430Z,16.90
2022-10-05T14:05:31.320Z,16.50
2022-10-05T14:08:15.608Z,16.30
2022-10-05T14:10:45.501Z,16.30
2022-10-05T14:13:13.406Z,16.20
2022-10-05T14:15:42.354Z,16.10
2022-10-05T14:18:27.683Z,16.00
2022-10-05T14:21:30.945Z,15.90
2022-10-05T14:24:44.287Z,15.80
2022-10-05T14:27:21.322Z,15.80
2022-10-05T14:29:58.456Z,15.80
2022-10-05T14:32:30.209Z,15.90
2022-10-05T14:35:17.091Z,15.90
2022-10-05T14:38:07.881Z,15.90
2022-10-05T14:40:37.498Z,16.00
2022-10-05T14:43:16.894Z,16.10
2022-10-05T14:46:02.613Z,16.20
2022-10-05T14:48:41.484Z,16.30
2022-10-05T14:51:34.831Z,16.30
2022-10-05T14:54:21.905Z,16.30
2022-10-05T14:57:03.085Z,16.30
2022-10-05T14:59:45.827Z,16.30
2022-10-05T15:02:52.516Z,16.30
2022-10-05T15:05:31.489Z,16.30
2022-10-05T15:08:27.726Z,16.30
2022-10-05T15:11:03.213Z,16.30
2022-10-05T15:13:38.462Z,16.30
2022-10-05T15:16:19.940Z,16.30
2022-10-05T15:19:01.571Z,16.30
2022-10-05T15:21:42.197Z,16.30
2022-10-05T15:24:17.280Z,16.20
2022-10-05T15:26:54.521Z,16.20
2022-10-05T15:29:36.332Z,16.10
2022-10-05T15:32:17.253Z,16.10
2022-10-05T15:35:06.158Z,16.10
2022-10-05T15:38:12.349Z,16.10
2022-10-05T15:40:48.907Z,16.00
2022-10-05T15:43:23.494Z,16.00
2022-10-05T15:46:17.076Z,16.00
2022-10-05T15:49:02.616Z,16.00
2022-10-05T15:51:50.264Z,16.00
2022-10-05T15:54:49.971Z,15.90
2022-10-05T15:57:23.400Z,15.90
2022-10-05T16:00:15.947Z,15.90
2022-10-05T16:03:05.284Z,15.80
2022-10-05T16:05:59.792Z,15.90
2022-10-05T16:08:54.050Z,15.90
2022-10-05T16:11:27.715Z,15.80
2022-10-05T16:14:22.177Z,15.80
2022-10-05T16:17:09.825Z,15.70
2022-10-05T16:20:03.380Z,15.70
2022-10-05T16:22:53.145Z,15.70
2022-10-05T16:25:40.026Z,15.70
2022-10-05T16:28:16.764Z,15.80
2022-10-05T16:30:58.957Z,15.80
2022-10-05T16:33:46.631Z,15.70
2022-10-05T16:36:27.442Z,15.70
2022-10-05T16:39:07.367Z,16.00
2022-10-05T16:41:50.113Z,16.20
2022-10-05T16:44:35.760Z,16.10
2022-10-05T16:47:38.568Z,16.20
2022-10-05T16:50:31.120Z,15.90
2022-10-05T16:53:38.924Z,15.70
2022-10-05T16:56:15.972Z,15.70
2022-10-05T16:59:08.136Z,15.10
2022-10-05T17:01:47.982Z,15.50
2022-10-05T17:04:26.950Z,15.50
2022-10-05T17:07:14.496Z,15.40
2022-10-05T17:10:00.751Z,15.30
2022-10-05T17:12:55.377Z,15.20
2022-10-05T17:16:04.165Z,15.10
2022-10-05T17:18:43.824Z,15.10
2022-10-05T17:21:28.553Z,15.00
2022-10-05T17:24:21.819Z,15.00
2022-10-05T17:27:03.048Z,14.90
2022-10-05T17:29:47.755Z,14.90
2022-10-05T17:32:15.753Z,14.80
2022-10-05T17:35:01.483Z,14.80
2022-10-05T17:37:35.750Z,15.20
2022-10-05T17:40:28.384Z,15.00
2022-10-05T17:43:14.365Z,14.80
2022-10-05T17:45:44.839Z,14.80
2022-10-05T17:48:13.112Z,14.70
2022-10-05T17:51:02.402Z,15.30
2022-10-05T17:54:03.305Z,14.60
2022-10-05T17:56:55.443Z,14.50
2022-10-05T17:59:53.833Z,14.50
2022-10-05T18:02:26.683Z,14.50
2022-10-05T18:05:12.717Z,14.40
2022-10-05T18:07:42.065Z,14.40
2022-10-05T18:10:12.449Z,14.30
2022-10-05T18:12:45.380Z,14.30
2022-10-05T18:15:23.095Z,14.20
2022-10-05T18:17:59.682Z,14.20
2022-10-05T18:20:31.487Z,14.20
2022-10-05T18:23:07.529Z,14.20
2022-10-05T18:25:55.238Z,14.20
2022-10-05T18:28:26.054Z,14.20
2022-10-05T18:30:59.702Z,14.20
2022-10-05T18:33:32.821Z,14.30
2022-10-05T18:36:45.089Z,14.20
2022-10-05T18:39:23.086Z,14.10
2022-10-05T18:41:57.717Z,14.60
2022-10-05T18:44:48.376Z,14.10
2022-10-05T18:47:30.329Z,14.00
2022-10-05T18:50:22.610Z,14.00
2022-10-05T18:52:58.474Z,13.80
2022-10-05T18:55:46.818Z,13.90
2022-10-05T18:58:22.415Z,13.90
2022-10-05T19:01:20.714Z,14.00
2022-10-05T19:03:55.418Z,14.20
2022-10-05T19:06:27.305Z,14.00
2022-10-05T19:09:03.619Z,14.10
2022-10-05T19:12:13.215Z,13.90
2022-10-05T19:14:56.556Z,13.80
2022-10-05T19:17:44.306Z,13.80
2022-10-05T19:20:35.912Z,13.80
2022-10-05T19:23:29.779Z,13.80
2022-10-05T19:26:17.749Z,13.70
2022-10-05T19:28:48.169Z,13.20
2022-10-05T19:31:30.439Z,13.60
2022-10-05T19:34:16.289Z,13.50
2022-10-05T19:37:31.020Z,13.50
2022-10-05T19:40:09.687Z,13.40
2022-10-05T19:43:14.899Z,13.40
2022-10-05T19:46:00.349Z,13.30
2022-10-05T19:48:43.128Z,13.30
2022-10-05T19:51:25.341Z,13.70
2022-10-05T19:53:55.876Z,13.30
2022-10-05T19:56:30.926Z,13.30
2022-10-05T19:59:13.218Z,13.30
2022-10-05T20:01:53.683Z,13.20
2022-10-05T20:04:40.899Z,13.20
2022-10-05T20:07:21.652Z,13.30
2022-10-05T20:10:17.560Z,13.10
2022-10-05T20:12:57.448Z,13.10
2022-10-05T20:15:54.546Z,13.00
2022-10-05T20:19:06.256Z,13.10
2022-10-05T20:21:39.448Z,13.00
2022-10-05T20:24:17.289Z,13.00
2022-10-05T20:27:12.602Z,13.30
2022-10-05T20:29:44.560Z,12.90
2022-10-05T20:32:15.312Z,13.00
2022-10-05T20:34:45.102Z,12.80
2022-10-05T20:37:17.723Z,12.90
2022-10-05T20:39:45.365Z,12.90
2022-10-05T20:42:12.725Z,12.80
2022-10-05T20:44:40.614Z,12.90
2022-10-05T20:47:10.928Z,12.90
2022-10-05T20:49:41.271Z,13.20
2022-10-05T20:52:10.863Z,12.80
2022-10-05T20:54:39.577Z,12.80
2022-10-05T20:57:07.251Z,12.80
2022-10-05T20:59:35.690Z,12.90
2022-10-05T21:02:03.803Z,12.80
2022-10-05T21:04:40.969Z,12.80
2022-10-05T21:07:09.503Z,12.80
2022-10-05T21:09:38.487Z,12.80
2022-10-05T21:12:05.889Z,12.70
2022-10-05T21:14:34.264Z,12.70
2022-10-05T21:17:03.143Z,12.70
2022-10-05T21:19:30.683Z,12.60
2022-10-05T21:21:59.113Z,12.60
2022-10-05T21:24:26.425Z,12.60
2022-10-05T21:26:57.571Z,13.30
2022-10-05T21:29:24.984Z,12.70
2022-10-05T21:31:52.552Z,12.60
2022-10-05T21:34:19.906Z,12.60
2022-10-05T21:36:47.202Z,12.30
2022-10-05T21:39:14.558Z,12.50
2022-10-05T21:41:41.884Z,12.30
2022-10-05T21:44:09.155Z,12.60
2022-10-05T21:46:38.086Z,12.50
2022-10-05T21:49:07.301Z,12.50
2022-10-05T21:51:36.070Z,12.40
2022-10-05T21:54:09.161Z,12.60
2022-10-05T21:56:40.091Z,13.40
2022-10-05T21:59:10.666Z,12.60
2022-10-05T22:01:38.004Z,12.40
2022-10-05T22:04:06.308Z,12.60
2022-10-05T22:06:35.182Z,12.30
2022-10-05T22:09:04.055Z,12.30
2022-10-05T22:11:31.921Z,12.30
2022-10-05T22:14:02.626Z,12.30
2022-10-05T22:16:33.078Z,12.30
2022-10-05T22:19:05.910Z,12.20
2022-10-05T22:21:41.606Z,12.10
2022-10-05T22:24:13.081Z,12.20
2022-10-05T22:26:43.508Z,12.20
2022-10-05T22:29:10.891Z,12.20
2022-10-05T22:31:38.687Z,12.30
2022-10-05T22:34:06.021Z,12.20
2022-10-05T22:36:37.257Z,12.20
2022-10-05T22:39:04.611Z,12.20
2022-10-05T22:41:31.893Z,12.20
2022-10-05T22:43:59.997Z,12.10
2022-10-05T22:46:27.453Z,12.20
2022-10-05T22:48:54.774Z,12.30
2022-10-05T22:51:22.024Z,12.30
2022-10-05T22:53:49.244Z,12.10
2022-10-05T22:56:16.704Z,13.10
2022-10-05T22:58:44.507Z,12.10
2022-10-05T23:01:15.227Z,12.10
2022-10-05T23:03:43.204Z,12.00
2022-10-05T23:06:16.378Z,12.20
2022-10-05T23:08:44.872Z,12.40
2022-10-05T23:11:21.939Z,12.00
2022-10-05T23:13:52.254Z,12.00
2022-10-05T23:16:23.797Z,12.00
2022-10-05T23:18:53.474Z,11.60
2022-10-05T23:21:22.853Z,11.90
2022-10-05T23:23:53.324Z,11.70
2022-10-05T23:26:23.586Z,12.00
2022-10-05T23:28:51.421Z,12.00
2022-10-05T23:31:21.817Z,11.70
2022-10-05T23:33:49.762Z,11.70
2022-10-05T23:36:19.819Z,11.70
2022-10-05T23:38:47.754Z,11.70
2022-10-05T23:41:16.038Z,11.70
2022-10-05T23:43:43.979Z,11.70
2022-10-05T23:46:12.534Z,11.70
2022-10-05T23:48:40.159Z,12.20
2022-10-05T23:51:09.976Z,11.80
2022-10-05T23:53:37.934Z,11.70
2022-10-05T23:56:05.694Z,11.60
2022-10-05T23:58:33.028Z,11.60
